createdAt,value
2019-02-21T00:01:18.706Z,2.82
2019-02-21T00:03:48.165Z,2.72
2019-02-21T00:09:07.430Z,2.74
2019-02-21T00:11:37.594Z,2.70
2019-02-21T00:44:15.152Z,2.48
2019-02-21T00:46:44.321Z,2.38
2019-02-21T00:49:13.623Z,2.36
2019-02-21T00:51:43.075Z,2.34
2019-02-21T00:54:13.042Z,2.35
2019-02-21T00:56:42.678Z,2.38
2019-02-21T01:16:00.182Z,2.53
2019-02-21T01:18:29.541Z,2.56
2019-02-21T01:20:58.924Z,2.61
2019-02-21T01:23:28.202Z,2.73
2019-02-21T01:25:57.660Z,2.75
2019-02-21T01:28:26.892Z,2.74
2019-02-21T01:30:57.210Z,2.70
2019-02-21T01:33:27.303Z,2.81
2019-02-21T01:35:56.512Z,3.19
2019-02-21T02:19:46.019Z,4.05
2019-02-21T02:22:15.198Z,4.07
2019-02-21T02:24:45.245Z,4.14
2019-02-21T02:27:14.702Z,4.18
2019-02-21T02:29:44.096Z,4.19
2019-02-21T02:32:13.485Z,4.19
2019-02-21T02:34:43.217Z,4.19
2019-02-21T02:37:12.581Z,4.30
2019-02-21T02:44:56.605Z,4.45
2019-02-21T02:47:25.785Z,4.51
2019-02-21T02:49:55.013Z,4.59
2019-02-21T02:52:24.688Z,4.64
2019-02-21T02:54:54.065Z,4.67
2019-02-21T03:08:21.102Z,4.90
2019-02-21T03:10:50.293Z,4.93
2019-02-21T03:13:19.516Z,4.94
2019-02-21T03:15:48.716Z,5.05
2019-02-21T03:18:18.202Z,5.13
2019-02-21T03:20:47.483Z,5.23
2019-02-21T03:23:16.978Z,5.30
2019-02-21T03:25:46.476Z,5.40
2019-02-21T03:28:15.711Z,5.46
2019-02-21T03:30:44.955Z,5.59
2019-02-21T03:33:14.202Z,5.77
2019-02-21T03:35:43.674Z,5.99
2019-02-21T03:38:12.887Z,5.94
2019-02-21T03:40:42.431Z,5.82
2019-02-21T03:43:11.638Z,5.76
2019-02-21T03:45:40.838Z,5.71
2019-02-21T03:48:10.361Z,5.97
2019-02-21T03:50:39.594Z,6.00
2019-02-21T03:53:08.817Z,5.93
2019-02-21T03:55:38.030Z,6.13
2019-02-21T03:58:07.247Z,6.09
2019-02-21T04:00:36.772Z,6.00
2019-02-21T04:03:05.980Z,5.89
2019-02-21T04:05:35.478Z,5.94
2019-02-21T04:08:04.710Z,6.20
2019-02-21T04:10:34.239Z,6.11
2019-02-21T04:13:03.454Z,5.97
2019-02-21T04:15:32.664Z,5.93
2019-02-21T04:18:01.872Z,6.07
2019-02-21T04:20:31.455Z,5.99
2019-02-21T04:23:00.659Z,6.02
2019-02-21T04:25:29.925Z,6.01
2019-02-21T04:27:59.377Z,5.89
2019-02-21T04:30:28.617Z,5.78
2019-02-21T04:32:57.807Z,5.76
2019-02-21T04:35:27.312Z,5.76
2019-02-21T04:37:56.536Z,5.72
2019-02-21T04:40:26.119Z,6.14
2019-02-21T04:42:55.975Z,6.10
2019-02-21T04:45:25.219Z,6.31
2019-02-21T04:47:54.426Z,6.43
2019-02-21T04:50:24.197Z,6.52
2019-02-21T04:52:53.884Z,6.61
2019-02-21T04:55:23.142Z,6.64
2019-02-21T04:57:52.455Z,6.55
2019-02-21T05:00:22.671Z,6.46
2019-02-21T05:02:52.576Z,6.26
2019-02-21T05:05:21.985Z,6.07
2019-02-21T05:07:51.891Z,5.96
2019-02-21T05:10:21.258Z,5.88
2019-02-21T05:12:50.584Z,5.75
2019-02-21T05:15:19.820Z,5.59
2019-02-21T05:17:49.062Z,5.43
2019-02-21T05:20:18.296Z,5.38
2019-02-21T05:22:47.803Z,5.42
2019-02-21T05:25:17.100Z,5.70
2019-02-21T05:30:43.639Z,5.88
2019-02-21T05:33:31.773Z,5.95
2019-02-21T06:08:32.621Z,4.61
2019-02-21T06:43:57.059Z,4.93
2019-02-21T07:48:20.246Z,5.82
2019-02-21T08:04:31.819Z,6.55
2019-02-21T08:07:01.094Z,6.64
2019-02-21T08:09:30.333Z,6.65
2019-02-21T08:11:59.569Z,6.74
2019-02-21T08:14:29.066Z,6.73
2019-02-21T08:16:58.787Z,6.75
2019-02-21T08:19:28.199Z,6.71
2019-02-21T08:22:00.245Z,6.77
2019-02-21T08:40:53.590Z,7.24
2019-02-21T08:43:23.608Z,7.41
2019-02-21T08:45:52.857Z,7.57
2019-02-21T08:48:22.129Z,7.70
2019-02-21T08:50:51.671Z,7.83
2019-02-21T08:53:20.918Z,7.88
2019-02-21T08:55:50.294Z,8.02
2019-02-21T08:58:19.796Z,8.14
2019-02-21T09:01:28.805Z,8.33
2019-02-21T09:04:09.594Z,8.54
2019-02-21T09:06:29.338Z,8.83
2019-02-21T09:08:59.064Z,9.09
2019-02-21T09:11:28.387Z,9.12
2019-02-21T09:16:32.369Z,9.60
2019-02-21T09:19:01.619Z,9.85
2019-02-21T09:21:30.856Z,10.00
2019-02-21T09:24:00.729Z,10.18
2019-02-21T09:26:30.364Z,10.52
2019-02-21T09:29:00.205Z,10.63
2019-02-21T09:31:30.198Z,10.63
2019-02-21T09:33:59.598Z,10.64
2019-02-21T09:36:28.877Z,10.84
2019-02-21T09:41:33.008Z,11.27
2019-02-21T09:44:02.950Z,11.23
2019-02-21T09:46:32.721Z,11.47
2019-02-21T09:49:03.057Z,11.61
2019-02-21T09:51:36.516Z,11.77
2019-02-21T10:26:09.395Z,11.98
2019-02-21T10:28:38.867Z,12.08
2019-02-21T10:31:09.134Z,12.37
2019-02-21T10:33:46.580Z,12.23
2019-02-21T10:36:10.309Z,12.53
2019-02-21T10:38:39.776Z,12.19
2019-02-21T10:41:09.689Z,12.11
2019-02-21T10:43:39.542Z,11.97
2019-02-21T10:46:09.064Z,12.05
2019-02-21T10:48:38.827Z,12.03
2019-02-21T10:51:22.338Z,11.92
2019-02-21T11:17:57.338Z,13.34
2019-02-21T11:20:26.822Z,13.73
2019-02-21T11:22:56.375Z,13.61
2019-02-21T11:25:26.275Z,13.41
2019-02-21T11:27:56.410Z,13.24
2019-02-21T11:30:25.605Z,13.13
2019-02-21T11:32:55.143Z,12.84
2019-02-21T11:35:24.448Z,12.83
2019-02-21T11:37:54.234Z,13.03
2019-02-21T11:41:03.825Z,13.03
2019-02-21T11:43:33.318Z,12.95
2019-02-21T11:48:51.230Z,13.11
2019-02-21T11:51:21.248Z,13.30
2019-02-21T11:53:50.893Z,13.87
2019-02-21T11:56:20.542Z,13.86
2019-02-21T11:58:50.048Z,14.07
2019-02-21T12:01:19.972Z,13.97
2019-02-21T12:03:49.505Z,13.84
2019-02-21T12:06:19.282Z,13.81
2019-02-21T12:08:48.846Z,13.99
2019-02-21T12:11:18.367Z,13.82
2019-02-21T12:13:47.913Z,14.16
2019-02-21T12:16:17.106Z,14.06
2019-02-21T12:18:46.703Z,13.88
2019-02-21T12:21:16.824Z,13.79
2019-02-21T12:23:46.655Z,13.86
2019-02-21T12:26:35.140Z,14.39
2019-02-21T12:29:04.845Z,14.51
2019-02-21T12:31:34.582Z,14.43
2019-02-21T12:34:04.140Z,14.35
2019-02-21T12:36:34.038Z,14.27
2019-02-21T12:41:59.252Z,14.26
2019-02-21T12:44:29.130Z,14.22
2019-02-21T12:46:58.521Z,14.23
2019-02-21T12:49:28.229Z,14.20
2019-02-21T12:51:57.732Z,14.56
2019-02-21T12:54:27.258Z,14.43
2019-02-21T12:56:56.734Z,14.61
2019-02-21T12:59:25.994Z,14.57
2019-02-21T13:01:55.503Z,14.67
2019-02-21T13:04:25.025Z,14.66
2019-02-21T13:06:54.308Z,15.04
2019-02-21T13:09:24.229Z,14.94
2019-02-21T13:11:53.852Z,14.70
2019-02-21T13:14:23.188Z,14.59
2019-02-21T13:16:52.748Z,14.70
2019-02-21T13:19:22.299Z,14.70
2019-02-21T13:21:51.848Z,15.18
2019-02-21T13:24:21.477Z,15.19
2019-02-21T13:26:51.389Z,14.91
2019-02-21T13:29:20.631Z,15.17
2019-02-21T13:31:50.733Z,14.82
2019-02-21T13:34:20.805Z,14.99
2019-02-21T13:36:50.741Z,15.08
2019-02-21T13:39:21.105Z,14.97
2019-02-21T13:41:50.455Z,14.87
2019-02-21T13:44:19.721Z,14.83
2019-02-21T13:46:48.941Z,14.53
2019-02-21T13:49:37.389Z,14.29
2019-02-21T13:52:07.412Z,14.02
2019-02-21T13:54:36.919Z,13.52
2019-02-21T13:57:25.086Z,13.29
2019-02-21T13:59:54.894Z,13.28
2019-02-21T14:02:24.530Z,13.39
2019-02-21T14:04:54.877Z,13.34
2019-02-21T14:07:24.774Z,13.48
2019-02-21T14:09:54.089Z,13.63
2019-02-21T14:12:26.287Z,13.63
2019-02-21T14:14:55.220Z,13.74
2019-02-21T14:17:24.756Z,13.83
2019-02-21T14:19:54.507Z,13.94
2019-02-21T14:22:24.039Z,13.94
2019-02-21T14:24:56.249Z,13.71
2019-02-21T14:27:26.200Z,13.40
2019-02-21T14:29:55.826Z,13.44
2019-02-21T14:32:25.065Z,13.40
2019-02-21T14:34:55.002Z,13.42
2019-02-21T14:37:24.215Z,13.53
2019-02-21T14:39:54.207Z,13.42
2019-02-21T14:42:23.738Z,13.46
2019-02-21T14:44:56.411Z,13.44
2019-02-21T14:47:25.800Z,13.35
2019-02-21T14:49:55.330Z,13.45
2019-02-21T14:52:24.744Z,13.51
2019-02-21T14:54:54.639Z,13.58
2019-02-21T14:57:24.365Z,13.62
2019-02-21T14:59:54.906Z,13.43
2019-02-21T15:02:25.149Z,13.40
2019-02-21T15:04:57.916Z,13.26
2019-02-21T15:07:29.956Z,13.30
2019-02-21T15:18:22.700Z,13.10
2019-02-21T15:20:52.878Z,13.03
2019-02-21T15:23:24.847Z,13.06
2019-02-21T15:25:56.982Z,13.00
2019-02-21T15:51:14.588Z,12.97
2019-02-21T15:53:44.554Z,12.96
2019-02-21T15:56:16.918Z,12.89
2019-02-21T15:58:46.878Z,12.83
2019-02-21T16:01:16.128Z,12.83
2019-02-21T16:03:45.701Z,12.85
2019-02-21T16:06:15.354Z,12.86
2019-02-21T16:08:45.389Z,12.85
2019-02-21T16:11:16.715Z,12.68
2019-02-21T16:13:46.846Z,12.64
2019-02-21T16:18:52.995Z,12.70
2019-02-21T16:21:22.542Z,12.70
2019-02-21T16:23:52.731Z,12.71
2019-02-21T16:26:22.670Z,12.74
2019-02-21T16:28:52.479Z,12.71
2019-02-21T16:31:22.502Z,12.64
2019-02-21T16:33:52.543Z,12.55
2019-02-21T16:36:22.105Z,12.40
2019-02-21T16:38:51.934Z,12.47
2019-02-21T16:41:21.882Z,12.46
2019-02-21T16:43:51.726Z,12.32
2019-02-21T16:46:21.623Z,12.28
2019-02-21T16:48:51.135Z,12.20
2019-02-21T16:51:40.341Z,12.17
2019-02-21T16:54:10.363Z,12.08
2019-02-21T16:56:39.918Z,11.99
2019-02-21T16:59:09.381Z,11.93
2019-02-21T17:01:38.960Z,11.87
2019-02-21T17:04:08.452Z,11.90
2019-02-21T17:06:38.001Z,11.88
2019-02-21T17:09:47.346Z,11.79
2019-02-21T17:12:17.176Z,11.87
2019-02-21T17:14:47.098Z,11.80
2019-02-21T17:17:16.350Z,11.74
2019-02-21T17:22:34.341Z,11.85
2019-02-21T17:25:04.742Z,11.95
2019-02-21T17:27:34.516Z,11.95
2019-02-21T17:33:13.502Z,11.85
2019-02-21T17:35:42.713Z,11.81
2019-02-21T17:38:14.380Z,11.81
2019-02-21T17:40:43.248Z,11.72
2019-02-21T17:43:13.056Z,11.65
2019-02-21T17:45:43.108Z,11.63
2019-02-21T17:48:12.763Z,11.51
2019-02-21T17:50:42.363Z,11.35
2019-02-21T17:53:11.618Z,11.42
2019-02-21T17:55:41.205Z,11.50
2019-02-21T17:58:11.336Z,11.39
2019-02-21T18:00:40.895Z,11.30
2019-02-21T18:03:10.135Z,11.17
2019-02-21T18:05:39.722Z,11.05
2019-02-21T18:08:09.396Z,11.07
2019-02-21T18:10:38.595Z,11.10
2019-02-21T18:13:08.177Z,11.08
2019-02-21T18:15:37.544Z,11.02
2019-02-21T18:18:06.804Z,11.04
2019-02-21T18:20:36.055Z,11.13
2019-02-21T18:23:05.301Z,11.21
2019-02-21T18:25:37.983Z,11.34
2019-02-21T18:28:07.990Z,11.19
2019-02-21T18:30:37.250Z,11.09
2019-02-21T18:33:06.750Z,11.03
2019-02-21T18:35:37.036Z,11.06
2019-02-21T18:38:06.672Z,11.07
2019-02-21T18:40:36.330Z,11.03
2019-02-21T18:43:06.413Z,10.89
2019-02-21T18:45:35.973Z,10.92
2019-02-21T18:48:05.479Z,10.81
2019-02-21T18:50:38.462Z,10.80
2019-02-21T18:53:06.712Z,10.76
2019-02-21T18:55:36.027Z,10.73
2019-02-21T18:58:05.525Z,10.71
2019-02-21T19:00:35.060Z,10.74
2019-02-21T19:03:04.320Z,10.75
2019-02-21T19:05:36.204Z,10.65
2019-02-21T19:08:05.663Z,10.57
2019-02-21T19:10:36.158Z,10.66
2019-02-21T19:13:07.644Z,10.62
2019-02-21T19:15:56.110Z,10.47
2019-02-21T19:18:25.938Z,10.47
2019-02-21T19:20:56.190Z,10.51
2019-02-21T19:23:26.393Z,10.38
2019-02-21T19:25:55.752Z,10.31
2019-02-21T19:28:25.104Z,10.40
2019-02-21T19:30:59.028Z,10.47
2019-02-21T19:33:29.099Z,10.46
2019-02-21T19:35:58.819Z,10.53
2019-02-21T19:38:28.867Z,10.49
2019-02-21T19:40:59.167Z,10.38
2019-02-21T19:44:09.100Z,10.27
2019-02-21T19:46:39.020Z,10.23
2019-02-21T19:49:08.277Z,10.28
2019-02-21T19:51:37.861Z,10.29
2019-02-21T19:54:07.467Z,10.33
2019-02-21T19:56:37.150Z,10.34
2019-02-21T19:59:06.538Z,10.30
2019-02-21T20:01:35.897Z,10.23
2019-02-21T20:04:05.286Z,10.24
2019-02-21T20:06:35.731Z,10.31
2019-02-21T20:09:05.905Z,10.26
2019-02-21T20:11:36.088Z,10.32
2019-02-21T20:14:07.389Z,10.39
2019-02-21T20:16:37.218Z,10.40
2019-02-21T20:19:06.989Z,10.25
2019-02-21T20:21:36.285Z,10.31
2019-02-21T20:24:05.715Z,10.31
2019-02-21T20:26:35.977Z,10.33
2019-02-21T20:29:05.278Z,10.25
2019-02-21T20:34:09.877Z,10.15
2019-02-21T20:36:50.455Z,10.23
2019-02-21T20:39:11.208Z,10.23
2019-02-21T20:41:40.643Z,10.26
2019-02-21T20:44:09.920Z,10.19
2019-02-21T20:46:39.947Z,10.20
2019-02-21T20:49:29.182Z,10.24
2019-02-21T20:51:58.540Z,10.29
2019-02-21T20:54:28.195Z,10.24
2019-02-21T20:56:58.683Z,10.23
2019-02-21T20:59:28.961Z,10.23
2019-02-21T21:01:58.270Z,10.27
2019-02-21T21:04:27.603Z,10.32
2019-02-21T21:06:57.613Z,10.27
2019-02-21T21:09:27.435Z,10.30
2019-02-21T21:11:57.198Z,10.29
2019-02-21T21:14:26.797Z,10.36
2019-02-21T21:16:56.479Z,10.39
2019-02-21T21:19:26.720Z,10.41
2019-02-21T21:21:56.080Z,10.43
2019-02-21T21:24:25.453Z,10.45
2019-02-21T21:26:55.088Z,10.51
2019-02-21T21:29:24.784Z,10.48
2019-02-21T21:31:54.520Z,10.51
2019-02-21T21:34:24.068Z,10.56
2019-02-21T21:36:53.462Z,10.61
2019-02-21T21:39:23.108Z,10.62
2019-02-21T21:41:52.736Z,10.61
2019-02-21T21:44:22.360Z,10.71
2019-02-21T21:46:52.022Z,10.69
2019-02-21T21:49:21.685Z,10.69
2019-02-21T21:51:55.231Z,10.79
2019-02-21T21:54:25.914Z,10.87
2019-02-21T21:57:35.811Z,10.81
2019-02-21T22:00:06.955Z,10.82
2019-02-21T22:05:12.411Z,10.76
2019-02-21T22:07:41.918Z,10.73
2019-02-21T22:10:12.112Z,10.73
2019-02-21T22:12:41.615Z,10.75
2019-02-21T22:15:12.184Z,10.67
2019-02-21T22:17:42.279Z,10.69
2019-02-21T22:22:41.278Z,10.72
2019-02-21T22:25:12.018Z,10.72
2019-02-21T22:27:41.538Z,10.70
2019-02-21T22:30:12.789Z,10.74
2019-02-21T22:33:01.090Z,10.64
2019-02-21T22:35:30.291Z,10.62
2019-02-21T22:37:59.816Z,10.64
2019-02-21T22:40:29.070Z,10.65
2019-02-21T22:42:58.680Z,10.59
2019-02-21T22:45:27.894Z,10.59
2019-02-21T22:47:58.163Z,10.59
2019-02-21T22:50:28.265Z,10.58
2019-02-21T22:52:58.053Z,10.57
2019-02-21T22:55:28.108Z,10.55
2019-02-21T22:57:58.857Z,10.57
2019-02-21T23:01:07.196Z,10.57
2019-02-21T23:07:30.006Z,10.65
2019-02-21T23:09:59.512Z,10.62
2019-02-21T23:12:28.816Z,10.62
2019-02-21T23:14:58.649Z,10.47
2019-02-21T23:17:28.132Z,10.56
2019-02-21T23:19:57.705Z,10.56
2019-02-21T23:22:27.512Z,10.55
2019-02-21T23:24:57.417Z,10.48
2019-02-21T23:27:27.343Z,10.56
2019-02-21T23:29:56.891Z,10.63
2019-02-21T23:32:26.377Z,10.50
2019-02-21T23:37:52.263Z,10.44
2019-02-21T23:43:16.899Z,10.38
2019-02-21T23:45:46.156Z,10.42
2019-02-21T23:48:15.980Z,10.42
2019-02-21T23:50:45.757Z,10.45
2019-02-21T23:53:14.991Z,10.43
2019-02-21T23:55:45.062Z,10.39
2019-02-21T23:58:14.567Z,10.45
